sensor_id;sensor_type;location;lat;lon;timestamp;temperature;humidity
8338;DHT22;4206;48.634;9.516;2022-12-18T00:02:13;-11.70;99.90
8338;DHT22;4206;48.634;9.516;2022-12-18T00:04:39;-11.70;99.90
8338;DHT22;4206;48.634;9.516;2022-12-18T00:07:05;-11.70;99.90
8338;DHT22;4206;48.634;9.516;2022-12-18T00:09:30;-11.70;99.90
8338;DHT22;4206;48.634;9.516;2022-12-18T00:11:56;-11.60;99.90
8338;DHT22;4206;48.634;9.516;2022-12-18T00:14:21;-11.60;99.90
8338;DHT22;4206;48.634;9.516;2022-12-18T00:16:47;-11.60;99.90
8338;DHT22;4206;48.634;9.516;2022-12-18T00:19:14;-11.60;99.90
8338;DHT22;4206;48.634;9.516;2022-12-18T00:21:40;-11.60;99.90
8338;DHT22;4206;48.634;9.516;2022-12-18T00:24:06;-11.60;99.90
8338;DHT22;4206;48.634;9.516;2022-12-18T00:26:34;-11.50;99.90
8338;DHT22;4206;48.634;9.516;2022-12-18T00:29:03;-11.30;99.90
8338;DHT22;4206;48.634;9.516;2022-12-18T00:31:29;-11.20;99.90
8338;DHT22;4206;48.634;9.516;2022-12-18T00:33:55;-11.20;99.90
8338;DHT22;4206;48.634;9.516;2022-12-18T00:36:24;-11.20;99.90
8338;DHT22;4206;48.634;9.516;2022-12-18T00:38:50;-11.20;99.90
8338;DHT22;4206;48.634;9.516;2022-12-18T00:41:17;-11.30;99.90
8338;DHT22;4206;48.634;9.516;2022-12-18T00:44:04;-11.40;99.90
8338;DHT22;4206;48.634;9.516;2022-12-18T00:46:31;-11.50;99.90
8338;DHT22;4206;48.634;9.516;2022-12-18T00:48:57;-11.60;99.90
8338;DHT22;4206;48.634;9.516;2022-12-18T00:51:24;-11.60;99.90
8338;DHT22;4206;48.634;9.516;2022-12-18T00:53:50;-11.60;99.90
8338;DHT22;4206;48.634;9.516;2022-12-18T00:56:16;-11.60;99.90
8338;DHT22;4206;48.634;9.516;2022-12-18T00:58:41;-11.70;99.90
8338;DHT22;4206;48.634;9.516;2022-12-18T01:01:07;-11.70;99.90
8338;DHT22;4206;48.634;9.516;2022-12-18T01:03:33;-11.70;99.90
8338;DHT22;4206;48.634;9.516;2022-12-18T01:05:59;-11.70;99.90
8338;DHT22;4206;48.634;9.516;2022-12-18T01:08:25;-11.60;99.90
8338;DHT22;4206;48.634;9.516;2022-12-18T01:10:50;-11.70;99.90
8338;DHT22;4206;48.634;9.516;2022-12-18T01:13:16;-11.70;99.90
8338;DHT22;4206;48.634;9.516;2022-12-18T01:15:48;-11.70;99.90
8338;DHT22;4206;48.634;9.516;2022-12-18T01:18:14;-11.70;99.90
8338;DHT22;4206;48.634;9.516;2022-12-18T01:20:40;-11.60;99.90
8338;DHT22;4206;48.634;9.516;2022-12-18T01:23:05;-11.50;99.90
8338;DHT22;4206;48.634;9.516;2022-12-18T01:25:32;-11.50;99.90
8338;DHT22;4206;48.634;9.516;2022-12-18T01:27:58;-11.20;99.90
8338;DHT22;4206;48.634;9.516;2022-12-18T01:30:24;-11.10;99.90
8338;DHT22;4206;48.634;9.516;2022-12-18T01:32:49;-11.20;99.90
8338;DHT22;4206;48.634;9.516;2022-12-18T01:35:15;-11.10;99.90
8338;DHT22;4206;48.634;9.516;2022-12-18T01:37:40;-11.10;99.90
8338;DHT22;4206;48.634;9.516;2022-12-18T01:40:07;-11.10;99.90
8338;DHT22;4206;48.634;9.516;2022-12-18T01:42:32;-11.10;99.90
8338;DHT22;4206;48.634;9.516;2022-12-18T01:50:06;-11.00;99.90
8338;DHT22;4206;48.634;9.516;2022-12-18T01:52:32;-11.00;99.90
8338;DHT22;4206;48.634;9.516;2022-12-18T01:54:59;-11.00;99.90
8338;DHT22;4206;48.634;9.516;2022-12-18T01:57:26;-11.10;99.90
8338;DHT22;4206;48.634;9.516;2022-12-18T01:59:55;-11.10;99.90
8338;DHT22;4206;48.634;9.516;2022-12-18T02:02:22;-11.20;99.90
8338;DHT22;4206;48.634;9.516;2022-12-18T02:04:48;-11.30;99.90
8338;DHT22;4206;48.634;9.516;2022-12-18T02:09:46;-11.50;99.90
8338;DHT22;4206;48.634;9.516;2022-12-18T02:12:17;-11.50;99.90
8338;DHT22;4206;48.634;9.516;2022-12-18T02:17:42;-11.60;99.90
8338;DHT22;4206;48.634;9.516;2022-12-18T02:27:45;-11.40;99.90
8338;DHT22;4206;48.634;9.516;2022-12-18T02:30:13;-11.40;99.90
8338;DHT22;4206;48.634;9.516;2022-12-18T02:32:42;-11.40;99.90
8338;DHT22;4206;48.634;9.516;2022-12-18T02:35:15;-11.40;99.90
8338;DHT22;4206;48.634;9.516;2022-12-18T02:37:43;-11.20;99.90
8338;DHT22;4206;48.634;9.516;2022-12-18T02:40:11;-11.10;99.90
8338;DHT22;4206;48.634;9.516;2022-12-18T02:42:38;-11.10;99.90
8338;DHT22;4206;48.634;9.516;2022-12-18T02:45:04;-11.20;99.90
8338;DHT22;4206;48.634;9.516;2022-12-18T02:47:32;-11.20;99.90
8338;DHT22;4206;48.634;9.516;2022-12-18T02:58:19;-11.40;99.90
8338;DHT22;4206;48.634;9.516;2022-12-18T03:03:38;-11.40;99.90
8338;DHT22;4206;48.634;9.516;2022-12-18T03:06:08;-11.30;99.90
8338;DHT22;4206;48.634;9.516;2022-12-18T03:08:39;-11.20;99.90
8338;DHT22;4206;48.634;9.516;2022-12-18T03:11:10;-11.20;99.90
8338;DHT22;4206;48.634;9.516;2022-12-18T03:16:24;-11.30;99.90
8338;DHT22;4206;48.634;9.516;2022-12-18T03:18:55;-11.40;99.90
8338;DHT22;4206;48.634;9.516;2022-12-18T03:21:28;-11.40;99.90
8338;DHT22;4206;48.634;9.516;2022-12-18T03:23:54;-11.40;99.90
8338;DHT22;4206;48.634;9.516;2022-12-18T03:26:24;-11.50;99.90
8338;DHT22;4206;48.634;9.516;2022-12-18T03:28:54;-11.60;99.90
8338;DHT22;4206;48.634;9.516;2022-12-18T03:31:23;-11.70;99.90
8338;DHT22;4206;48.634;9.516;2022-12-18T03:33:58;-11.80;99.90
8338;DHT22;4206;48.634;9.516;2022-12-18T03:36:25;-11.90;99.90
8338;DHT22;4206;48.634;9.516;2022-12-18T03:38:52;-11.90;99.90
8338;DHT22;4206;48.634;9.516;2022-12-18T03:41:31;-11.90;99.90
8338;DHT22;4206;48.634;9.516;2022-12-18T03:44:03;-12.00;99.90
8338;DHT22;4206;48.634;9.516;2022-12-18T03:49:26;-12.00;99.90
8338;DHT22;4206;48.634;9.516;2022-12-18T03:54:41;-12.00;99.90
8338;DHT22;4206;48.634;9.516;2022-12-18T03:57:19;-11.90;99.90
8338;DHT22;4206;48.634;9.516;2022-12-18T03:59:49;-11.80;99.90
8338;DHT22;4206;48.634;9.516;2022-12-18T04:02:17;-11.90;99.90
8338;DHT22;4206;48.634;9.516;2022-12-18T04:04:43;-12.00;99.90
8338;DHT22;4206;48.634;9.516;2022-12-18T04:07:10;-12.00;99.90
8338;DHT22;4206;48.634;9.516;2022-12-18T04:09:39;-12.10;99.90
8338;DHT22;4206;48.634;9.516;2022-12-18T04:12:05;-12.10;99.90
8338;DHT22;4206;48.634;9.516;2022-12-18T04:14:31;-12.20;99.90
8338;DHT22;4206;48.634;9.516;2022-12-18T04:17:01;-12.30;99.90
8338;DHT22;4206;48.634;9.516;2022-12-18T04:19:26;-12.30;99.90
8338;DHT22;4206;48.634;9.516;2022-12-18T04:21:52;-12.40;99.90
8338;DHT22;4206;48.634;9.516;2022-12-18T04:24:18;-12.40;99.90
8338;DHT22;4206;48.634;9.516;2022-12-18T04:26:43;-12.40;99.90
8338;DHT22;4206;48.634;9.516;2022-12-18T04:29:09;-12.40;99.90
8338;DHT22;4206;48.634;9.516;2022-12-18T04:31:34;-12.50;99.90
8338;DHT22;4206;48.634;9.516;2022-12-18T04:34:00;-12.50;99.90
8338;DHT22;4206;48.634;9.516;2022-12-18T04:36:26;-12.50;99.90
8338;DHT22;4206;48.634;9.516;2022-12-18T04:38:52;-12.40;99.90
8338;DHT22;4206;48.634;9.516;2022-12-18T04:41:18;-12.60;99.90
8338;DHT22;4206;48.634;9.516;2022-12-18T04:43:44;-12.60;99.90
8338;DHT22;4206;48.634;9.516;2022-12-18T04:46:09;-12.60;99.90
8338;DHT22;4206;48.634;9.516;2022-12-18T04:48:35;-12.70;99.90
8338;DHT22;4206;48.634;9.516;2022-12-18T04:51:02;-12.70;99.90
8338;DHT22;4206;48.634;9.516;2022-12-18T04:53:28;-12.80;99.90
8338;DHT22;4206;48.634;9.516;2022-12-18T04:56:10;-12.80;99.90
8338;DHT22;4206;48.634;9.516;2022-12-18T04:58:36;-12.80;99.90
8338;DHT22;4206;48.634;9.516;2022-12-18T05:01:03;-12.90;99.90
8338;DHT22;4206;48.634;9.516;2022-12-18T05:03:29;-12.90;99.90
8338;DHT22;4206;48.634;9.516;2022-12-18T05:05:54;-12.80;99.90
8338;DHT22;4206;48.634;9.516;2022-12-18T05:08:20;-12.80;99.90
8338;DHT22;4206;48.634;9.516;2022-12-18T05:10:45;-12.90;99.90
8338;DHT22;4206;48.634;9.516;2022-12-18T05:13:11;-13.00;99.90
8338;DHT22;4206;48.634;9.516;2022-12-18T05:15:37;-12.90;99.90
8338;DHT22;4206;48.634;9.516;2022-12-18T05:18:03;-13.10;99.90
8338;DHT22;4206;48.634;9.516;2022-12-18T05:20:29;-13.20;99.90
8338;DHT22;4206;48.634;9.516;2022-12-18T05:22:55;-13.30;99.90
8338;DHT22;4206;48.634;9.516;2022-12-18T05:25:21;-13.40;99.90
8338;DHT22;4206;48.634;9.516;2022-12-18T05:27:47;-13.40;99.90
8338;DHT22;4206;48.634;9.516;2022-12-18T05:30:14;-13.40;99.90
8338;DHT22;4206;48.634;9.516;2022-12-18T05:32:40;-13.50;99.90
8338;DHT22;4206;48.634;9.516;2022-12-18T05:35:09;-13.50;99.90
8338;DHT22;4206;48.634;9.516;2022-12-18T05:37:36;-13.50;99.90
8338;DHT22;4206;48.634;9.516;2022-12-18T05:40:03;-13.60;99.90
8338;DHT22;4206;48.634;9.516;2022-12-18T05:42:30;-13.50;99.90
8338;DHT22;4206;48.634;9.516;2022-12-18T05:44:55;-13.30;99.90
8338;DHT22;4206;48.634;9.516;2022-12-18T05:47:21;-13.00;99.90
8338;DHT22;4206;48.634;9.516;2022-12-18T05:49:46;-12.90;99.90
8338;DHT22;4206;48.634;9.516;2022-12-18T05:52:12;-12.90;99.90
8338;DHT22;4206;48.634;9.516;2022-12-18T05:54:37;-12.90;99.90
8338;DHT22;4206;48.634;9.516;2022-12-18T05:57:04;-13.00;99.90
8338;DHT22;4206;48.634;9.516;2022-12-18T05:59:30;-13.00;99.90
8338;DHT22;4206;48.634;9.516;2022-12-18T06:01:55;-13.20;99.90
8338;DHT22;4206;48.634;9.516;2022-12-18T06:04:21;-13.20;99.90
8338;DHT22;4206;48.634;9.516;2022-12-18T06:06:46;-13.30;99.90
8338;DHT22;4206;48.634;9.516;2022-12-18T06:09:12;-13.30;99.90
8338;DHT22;4206;48.634;9.516;2022-12-18T06:11:38;-13.40;99.90
8338;DHT22;4206;48.634;9.516;2022-12-18T06:14:05;-13.40;99.90
8338;DHT22;4206;48.634;9.516;2022-12-18T06:16:31;-13.40;99.90
8338;DHT22;4206;48.634;9.516;2022-12-18T06:18:57;-13.50;99.90
8338;DHT22;4206;48.634;9.516;2022-12-18T06:21:23;-13.50;99.90
8338;DHT22;4206;48.634;9.516;2022-12-18T06:23:50;-13.50;99.90
8338;DHT22;4206;48.634;9.516;2022-12-18T06:26:15;-13.60;99.90
8338;DHT22;4206;48.634;9.516;2022-12-18T06:28:42;-13.70;99.90
8338;DHT22;4206;48.634;9.516;2022-12-18T06:31:07;-13.70;99.90
8338;DHT22;4206;48.634;9.516;2022-12-18T06:33:33;-13.70;99.90
8338;DHT22;4206;48.634;9.516;2022-12-18T06:36:02;-13.70;99.90
8338;DHT22;4206;48.634;9.516;2022-12-18T06:38:28;-13.70;99.90
8338;DHT22;4206;48.634;9.516;2022-12-18T06:40:54;-13.60;99.90
8338;DHT22;4206;48.634;9.516;2022-12-18T06:43:19;-13.50;99.90
8338;DHT22;4206;48.634;9.516;2022-12-18T06:45:45;-13.40;99.90
8338;DHT22;4206;48.634;9.516;2022-12-18T06:48:14;-13.40;99.90
8338;DHT22;4206;48.634;9.516;2022-12-18T06:50:42;-13.40;99.90
8338;DHT22;4206;48.634;9.516;2022-12-18T06:53:08;-13.30;99.90
8338;DHT22;4206;48.634;9.516;2022-12-18T06:55:33;-13.20;99.90
8338;DHT22;4206;48.634;9.516;2022-12-18T06:58:06;-13.20;99.90
8338;DHT22;4206;48.634;9.516;2022-12-18T07:00:32;-13.20;99.90
8338;DHT22;4206;48.634;9.516;2022-12-18T07:02:58;-13.30;99.90
8338;DHT22;4206;48.634;9.516;2022-12-18T07:05:23;-13.30;99.90
8338;DHT22;4206;48.634;9.516;2022-12-18T07:07:49;-13.30;99.90
8338;DHT22;4206;48.634;9.516;2022-12-18T07:10:14;-13.30;99.90
8338;DHT22;4206;48.634;9.516;2022-12-18T07:12:40;-13.40;99.90
8338;DHT22;4206;48.634;9.516;2022-12-18T07:15:07;-13.50;99.90
8338;DHT22;4206;48.634;9.516;2022-12-18T07:17:32;-13.50;99.90
8338;DHT22;4206;48.634;9.516;2022-12-18T07:19:58;-13.50;99.90
8338;DHT22;4206;48.634;9.516;2022-12-18T07:22:25;-13.50;99.90
8338;DHT22;4206;48.634;9.516;2022-12-18T07:24:51;-13.50;99.90
8338;DHT22;4206;48.634;9.516;2022-12-18T07:27:17;-13.60;99.90
8338;DHT22;4206;48.634;9.516;2022-12-18T07:29:43;-13.60;99.90
8338;DHT22;4206;48.634;9.516;2022-12-18T07:32:08;-13.60;99.90
8338;DHT22;4206;48.634;9.516;2022-12-18T07:34:34;-13.60;99.90
8338;DHT22;4206;48.634;9.516;2022-12-18T07:37:00;-13.60;99.90
8338;DHT22;4206;48.634;9.516;2022-12-18T07:39:25;-13.60;99.90
8338;DHT22;4206;48.634;9.516;2022-12-18T07:41:51;-13.40;99.90
8338;DHT22;4206;48.634;9.516;2022-12-18T07:44:32;-13.40;99.90
8338;DHT22;4206;48.634;9.516;2022-12-18T07:46:58;-13.20;99.90
8338;DHT22;4206;48.634;9.516;2022-12-18T07:49:23;-13.20;99.90
8338;DHT22;4206;48.634;9.516;2022-12-18T07:51:49;-13.10;99.90
8338;DHT22;4206;48.634;9.516;2022-12-18T07:54:15;-13.00;99.90
8338;DHT22;4206;48.634;9.516;2022-12-18T07:56:40;-12.90;99.90
8338;DHT22;4206;48.634;9.516;2022-12-18T07:59:07;-12.90;99.90
8338;DHT22;4206;48.634;9.516;2022-12-18T08:01:33;-12.80;99.90
8338;DHT22;4206;48.634;9.516;2022-12-18T08:03:59;-12.80;99.90
8338;DHT22;4206;48.634;9.516;2022-12-18T08:06:25;-12.70;99.90
8338;DHT22;4206;48.634;9.516;2022-12-18T08:08:52;-12.60;99.90
8338;DHT22;4206;48.634;9.516;2022-12-18T08:11:18;-12.40;99.90
8338;DHT22;4206;48.634;9.516;2022-12-18T08:13:44;-12.30;99.90
8338;DHT22;4206;48.634;9.516;2022-12-18T08:16:09;-12.20;99.90
8338;DHT22;4206;48.634;9.516;2022-12-18T08:18:37;-12.10;99.90
8338;DHT22;4206;48.634;9.516;2022-12-18T08:21:19;-12.00;99.90
8338;DHT22;4206;48.634;9.516;2022-12-18T08:23:46;-11.90;99.90
8338;DHT22;4206;48.634;9.516;2022-12-18T08:26:12;-11.80;99.90
8338;DHT22;4206;48.634;9.516;2022-12-18T08:28:38;-11.70;99.90
8338;DHT22;4206;48.634;9.516;2022-12-18T08:31:04;-11.60;99.90
8338;DHT22;4206;48.634;9.516;2022-12-18T08:33:30;-11.50;99.90
8338;DHT22;4206;48.634;9.516;2022-12-18T08:35:55;-11.50;99.90
8338;DHT22;4206;48.634;9.516;2022-12-18T08:38:21;-11.40;99.90
8338;DHT22;4206;48.634;9.516;2022-12-18T08:40:48;-11.30;99.90
8338;DHT22;4206;48.634;9.516;2022-12-18T08:43:13;-11.20;99.90
8338;DHT22;4206;48.634;9.516;2022-12-18T08:45:54;-11.10;99.90
8338;DHT22;4206;48.634;9.516;2022-12-18T08:48:20;-11.00;99.90
8338;DHT22;4206;48.634;9.516;2022-12-18T08:51:01;-10.90;99.90
8338;DHT22;4206;48.634;9.516;2022-12-18T08:53:27;-10.80;99.90
8338;DHT22;4206;48.634;9.516;2022-12-18T08:55:53;-10.70;99.90
8338;DHT22;4206;48.634;9.516;2022-12-18T08:58:19;-10.60;99.90
8338;DHT22;4206;48.634;9.516;2022-12-18T09:00:45;-10.50;99.90
8338;DHT22;4206;48.634;9.516;2022-12-18T09:03:13;-10.40;99.90
8338;DHT22;4206;48.634;9.516;2022-12-18T09:05:39;-10.40;99.90
8338;DHT22;4206;48.634;9.516;2022-12-18T09:08:05;-10.20;99.90
8338;DHT22;4206;48.634;9.516;2022-12-18T09:10:31;-10.20;99.90
8338;DHT22;4206;48.634;9.516;2022-12-18T09:12:57;-10.00;99.90
8338;DHT22;4206;48.634;9.516;2022-12-18T09:15:23;-9.90;99.90
8338;DHT22;4206;48.634;9.516;2022-12-18T09:17:48;-9.70;99.90
8338;DHT22;4206;48.634;9.516;2022-12-18T09:20:15;-9.60;99.90
8338;DHT22;4206;48.634;9.516;2022-12-18T09:22:41;-9.60;99.90
8338;DHT22;4206;48.634;9.516;2022-12-18T09:25:07;-9.50;99.90
8338;DHT22;4206;48.634;9.516;2022-12-18T09:27:34;-9.40;99.90
8338;DHT22;4206;48.634;9.516;2022-12-18T09:30:00;-9.20;99.90
8338;DHT22;4206;48.634;9.516;2022-12-18T09:32:25;-9.10;99.90
8338;DHT22;4206;48.634;9.516;2022-12-18T09:34:51;-8.90;99.90
8338;DHT22;4206;48.634;9.516;2022-12-18T09:37:19;-8.70;99.90
8338;DHT22;4206;48.634;9.516;2022-12-18T09:39:45;-8.50;99.90
8338;DHT22;4206;48.634;9.516;2022-12-18T09:42:21;-8.30;99.90
8338;DHT22;4206;48.634;9.516;2022-12-18T09:44:53;-8.20;99.90
8338;DHT22;4206;48.634;9.516;2022-12-18T09:47:24;-7.90;99.90
8338;DHT22;4206;48.634;9.516;2022-12-18T09:49:55;-6.90;99.90
8338;DHT22;4206;48.634;9.516;2022-12-18T09:52:33;-6.10;99.90
8338;DHT22;4206;48.634;9.516;2022-12-18T09:55:03;-5.10;99.90
8338;DHT22;4206;48.634;9.516;2022-12-18T09:57:33;-3.50;99.90
8338;DHT22;4206;48.634;9.516;2022-12-18T10:00:11;-3.30;99.90
8338;DHT22;4206;48.634;9.516;2022-12-18T10:02:40;-2.10;99.90
8338;DHT22;4206;48.634;9.516;2022-12-18T10:05:11;-2.10;99.90
8338;DHT22;4206;48.634;9.516;2022-12-18T10:20:59;-2.00;99.90
8338;DHT22;4206;48.634;9.516;2022-12-18T10:26:03;-1.50;99.90
8338;DHT22;4206;48.634;9.516;2022-12-18T10:28:30;-2.10;99.90
8338;DHT22;4206;48.634;9.516;2022-12-18T10:30:57;-2.00;99.90
8338;DHT22;4206;48.634;9.516;2022-12-18T10:33:27;-2.20;99.90
8338;DHT22;4206;48.634;9.516;2022-12-18T10:35:54;-2.10;99.90
8338;DHT22;4206;48.634;9.516;2022-12-18T10:38:25;-2.10;99.90
8338;DHT22;4206;48.634;9.516;2022-12-18T10:43:23;-1.50;99.90
8338;DHT22;4206;48.634;9.516;2022-12-18T10:51:05;-0.70;99.90
8338;DHT22;4206;48.634;9.516;2022-12-18T10:53:33;-0.40;99.90
8338;DHT22;4206;48.634;9.516;2022-12-18T10:56:02;0.60;99.90
8338;DHT22;4206;48.634;9.516;2022-12-18T11:01:07;0.40;99.90
8338;DHT22;4206;48.634;9.516;2022-12-18T11:06:17;0.10;99.90
8338;DHT22;4206;48.634;9.516;2022-12-18T11:08:56;-0.30;99.90
8338;DHT22;4206;48.634;9.516;2022-12-18T11:11:23;-0.90;99.90
8338;DHT22;4206;48.634;9.516;2022-12-18T11:14:05;-0.50;99.90
8338;DHT22;4206;48.634;9.516;2022-12-18T11:16:42;0.20;99.90
8338;DHT22;4206;48.634;9.516;2022-12-18T11:19:21;0.70;99.90
8338;DHT22;4206;48.634;9.516;2022-12-18T11:21:48;1.10;99.90
8338;DHT22;4206;48.634;9.516;2022-12-18T11:24:20;0.80;99.90
8338;DHT22;4206;48.634;9.516;2022-12-18T11:26:49;0.90;99.90
8338;DHT22;4206;48.634;9.516;2022-12-18T11:29:18;1.10;99.90
8338;DHT22;4206;48.634;9.516;2022-12-18T11:31:48;1.50;99.90
8338;DHT22;4206;48.634;9.516;2022-12-18T11:36:47;2.60;99.90
8338;DHT22;4206;48.634;9.516;2022-12-18T11:39:34;2.90;99.90
8338;DHT22;4206;48.634;9.516;2022-12-18T11:42:12;2.10;99.90
8338;DHT22;4206;48.634;9.516;2022-12-18T11:44:51;2.60;99.90
8338;DHT22;4206;48.634;9.516;2022-12-18T11:47:31;2.00;99.90
8338;DHT22;4206;48.634;9.516;2022-12-18T11:50:05;2.10;99.90
8338;DHT22;4206;48.634;9.516;2022-12-18T11:52:40;2.30;99.90
8338;DHT22;4206;48.634;9.516;2022-12-18T11:55:18;1.80;99.90
8338;DHT22;4206;48.634;9.516;2022-12-18T12:00:28;2.90;99.90
8338;DHT22;4206;48.634;9.516;2022-12-18T12:16:18;3.70;99.90
8338;DHT22;4206;48.634;9.516;2022-12-18T12:21:40;4.20;99.90
8338;DHT22;4206;48.634;9.516;2022-12-18T12:29:59;4.00;99.90
8338;DHT22;4206;48.634;9.516;2022-12-18T12:32:45;3.80;99.90
8338;DHT22;4206;48.634;9.516;2022-12-18T12:40:48;2.90;99.90
8338;DHT22;4206;48.634;9.516;2022-12-18T12:43:33;2.50;99.90
8338;DHT22;4206;48.634;9.516;2022-12-18T12:46:06;2.20;99.90
8338;DHT22;4206;48.634;9.516;2022-12-18T12:51:28;2.20;99.90
8338;DHT22;4206;48.634;9.516;2022-12-18T12:53:56;2.60;99.90
8338;DHT22;4206;48.634;9.516;2022-12-18T12:56:26;2.30;99.90
8338;DHT22;4206;48.634;9.516;2022-12-18T13:01:36;2.90;99.90
8338;DHT22;4206;48.634;9.516;2022-12-18T13:09:31;3.00;99.90
8338;DHT22;4206;48.634;9.516;2022-12-18T13:12:03;2.70;99.90
8338;DHT22;4206;48.634;9.516;2022-12-18T13:14:45;2.60;99.90
8338;DHT22;4206;48.634;9.516;2022-12-18T13:19:41;2.30;99.90
8338;DHT22;4206;48.634;9.516;2022-12-18T13:22:24;2.10;99.90
8338;DHT22;4206;48.634;9.516;2022-12-18T13:24:50;1.80;99.90
8338;DHT22;4206;48.634;9.516;2022-12-18T13:35:41;1.20;99.90
8338;DHT22;4206;48.634;9.516;2022-12-18T13:51:33;0.30;99.90
8338;DHT22;4206;48.634;9.516;2022-12-18T13:54:01;0.20;99.90
8338;DHT22;4206;48.634;9.516;2022-12-18T13:56:30;0.50;99.90
8338;DHT22;4206;48.634;9.516;2022-12-18T13:59:20;0.30;99.90
8338;DHT22;4206;48.634;9.516;2022-12-18T14:01:51;0.10;99.90
8338;DHT22;4206;48.634;9.516;2022-12-18T14:04:19;0.20;99.90
8338;DHT22;4206;48.634;9.516;2022-12-18T14:06:46;-0.50;99.90
8338;DHT22;4206;48.634;9.516;2022-12-18T14:09:15;-0.10;99.90
8338;DHT22;4206;48.634;9.516;2022-12-18T14:11:53;-0.40;99.90
8338;DHT22;4206;48.634;9.516;2022-12-18T14:14:45;-0.30;99.90
8338;DHT22;4206;48.634;9.516;2022-12-18T14:17:13;-0.40;99.90
8338;DHT22;4206;48.634;9.516;2022-12-18T14:19:46;-0.30;99.90
8338;DHT22;4206;48.634;9.516;2022-12-18T14:22:17;-0.60;99.90
8338;DHT22;4206;48.634;9.516;2022-12-18T14:24:43;-0.80;99.90
8338;DHT22;4206;48.634;9.516;2022-12-18T14:27:21;-0.70;99.90
8338;DHT22;4206;48.634;9.516;2022-12-18T14:29:47;-0.90;99.90
8338;DHT22;4206;48.634;9.516;2022-12-18T14:32:17;-0.80;99.90
8338;DHT22;4206;48.634;9.516;2022-12-18T14:34:47;-1.00;99.90
8338;DHT22;4206;48.634;9.516;2022-12-18T14:37:15;-1.20;99.90
8338;DHT22;4206;48.634;9.516;2022-12-18T14:39:53;-1.30;99.90
8338;DHT22;4206;48.634;9.516;2022-12-18T14:42:19;-1.50;99.90
8338;DHT22;4206;48.634;9.516;2022-12-18T14:44:48;-1.70;99.90
8338;DHT22;4206;48.634;9.516;2022-12-18T14:47:15;-1.90;99.90
8338;DHT22;4206;48.634;9.516;2022-12-18T14:49:42;-2.00;99.90
8338;DHT22;4206;48.634;9.516;2022-12-18T14:52:28;-2.10;99.90
8338;DHT22;4206;48.634;9.516;2022-12-18T14:54:54;-2.30;99.90
8338;DHT22;4206;48.634;9.516;2022-12-18T14:57:23;-2.50;99.90
8338;DHT22;4206;48.634;9.516;2022-12-18T14:59:50;-2.50;99.90
8338;DHT22;4206;48.634;9.516;2022-12-18T15:02:25;-2.60;99.90
8338;DHT22;4206;48.634;9.516;2022-12-18T15:05:03;-2.60;99.90
8338;DHT22;4206;48.634;9.516;2022-12-18T15:07:41;-2.70;99.90
8338;DHT22;4206;48.634;9.516;2022-12-18T15:10:12;-2.70;99.90
8338;DHT22;4206;48.634;9.516;2022-12-18T15:20:31;-3.10;99.90
8338;DHT22;4206;48.634;9.516;2022-12-18T15:22:58;-3.30;99.90
8338;DHT22;4206;48.634;9.516;2022-12-18T15:25:32;-3.40;99.90
8338;DHT22;4206;48.634;9.516;2022-12-18T15:27:59;-3.50;99.90
8338;DHT22;4206;48.634;9.516;2022-12-18T15:30:26;-3.70;99.90
8338;DHT22;4206;48.634;9.516;2022-12-18T15:32:52;-3.80;99.90
8338;DHT22;4206;48.634;9.516;2022-12-18T15:35:38;-3.90;99.90
8338;DHT22;4206;48.634;9.516;2022-12-18T15:38:03;-4.00;99.90
8338;DHT22;4206;48.634;9.516;2022-12-18T15:40:29;-4.10;99.90
8338;DHT22;4206;48.634;9.516;2022-12-18T15:42:55;-4.30;99.90
8338;DHT22;4206;48.634;9.516;2022-12-18T15:45:37;-4.30;99.90
8338;DHT22;4206;48.634;9.516;2022-12-18T15:48:21;-4.50;99.90
8338;DHT22;4206;48.634;9.516;2022-12-18T15:50:48;-4.40;99.90
8338;DHT22;4206;48.634;9.516;2022-12-18T15:53:13;-4.50;99.90
8338;DHT22;4206;48.634;9.516;2022-12-18T15:55:39;-4.60;99.90
8338;DHT22;4206;48.634;9.516;2022-12-18T15:58:20;-4.70;99.90
8338;DHT22;4206;48.634;9.516;2022-12-18T16:00:46;-4.80;99.90
8338;DHT22;4206;48.634;9.516;2022-12-18T16:03:11;-4.90;99.90
8338;DHT22;4206;48.634;9.516;2022-12-18T16:05:37;-4.90;99.90
8338;DHT22;4206;48.634;9.516;2022-12-18T16:08:03;-5.00;99.90
8338;DHT22;4206;48.634;9.516;2022-12-18T16:10:29;-5.10;99.90
8338;DHT22;4206;48.634;9.516;2022-12-18T16:12:54;-5.10;99.90
8338;DHT22;4206;48.634;9.516;2022-12-18T16:15:20;-5.10;99.90
8338;DHT22;4206;48.634;9.516;2022-12-18T16:17:46;-5.10;99.90
8338;DHT22;4206;48.634;9.516;2022-12-18T16:20:21;-5.10;99.90
8338;DHT22;4206;48.634;9.516;2022-12-18T16:22:48;-5.20;99.90
8338;DHT22;4206;48.634;9.516;2022-12-18T16:25:23;-5.30;99.90
8338;DHT22;4206;48.634;9.516;2022-12-18T16:27:50;-5.20;99.90
8338;DHT22;4206;48.634;9.516;2022-12-18T16:30:19;-5.10;99.90
8338;DHT22;4206;48.634;9.516;2022-12-18T16:32:46;-5.20;99.90
8338;DHT22;4206;48.634;9.516;2022-12-18T16:35:13;-5.30;99.90
8338;DHT22;4206;48.634;9.516;2022-12-18T16:37:40;-5.30;99.90
8338;DHT22;4206;48.634;9.516;2022-12-18T16:40:08;-5.30;99.90
8338;DHT22;4206;48.634;9.516;2022-12-18T16:42:35;-5.50;99.90
8338;DHT22;4206;48.634;9.516;2022-12-18T16:45:02;-5.30;99.90
8338;DHT22;4206;48.634;9.516;2022-12-18T16:47:27;-5.50;99.90
8338;DHT22;4206;48.634;9.516;2022-12-18T16:49:53;-5.60;99.90
8338;DHT22;4206;48.634;9.516;2022-12-18T16:52:19;-5.70;99.90
8338;DHT22;4206;48.634;9.516;2022-12-18T16:54:45;-5.80;99.90
8338;DHT22;4206;48.634;9.516;2022-12-18T16:57:13;-5.90;99.90
8338;DHT22;4206;48.634;9.516;2022-12-18T16:59:39;-5.90;99.90
8338;DHT22;4206;48.634;9.516;2022-12-18T17:02:10;-6.00;99.90
8338;DHT22;4206;48.634;9.516;2022-12-18T17:04:37;-6.00;99.90
8338;DHT22;4206;48.634;9.516;2022-12-18T17:07:02;-6.00;99.90
8338;DHT22;4206;48.634;9.516;2022-12-18T17:09:29;-6.00;99.90
8338;DHT22;4206;48.634;9.516;2022-12-18T17:11:54;-6.00;99.90
8338;DHT22;4206;48.634;9.516;2022-12-18T17:14:22;-6.10;99.90
8338;DHT22;4206;48.634;9.516;2022-12-18T17:16:48;-6.10;99.90
8338;DHT22;4206;48.634;9.516;2022-12-18T17:19:15;-6.10;99.90
8338;DHT22;4206;48.634;9.516;2022-12-18T17:21:42;-6.20;99.90
8338;DHT22;4206;48.634;9.516;2022-12-18T17:24:08;-6.20;99.90
8338;DHT22;4206;48.634;9.516;2022-12-18T17:26:34;-6.30;99.90
8338;DHT22;4206;48.634;9.516;2022-12-18T17:29:00;-6.30;99.90
8338;DHT22;4206;48.634;9.516;2022-12-18T17:31:28;-6.30;99.90
8338;DHT22;4206;48.634;9.516;2022-12-18T17:33:54;-6.30;99.90
8338;DHT22;4206;48.634;9.516;2022-12-18T17:36:20;-6.30;99.90
8338;DHT22;4206;48.634;9.516;2022-12-18T17:38:56;-6.30;99.90
8338;DHT22;4206;48.634;9.516;2022-12-18T17:41:22;-6.30;99.90
8338;DHT22;4206;48.634;9.516;2022-12-18T17:43:51;-6.30;99.90
8338;DHT22;4206;48.634;9.516;2022-12-18T17:46:17;-6.30;99.90
8338;DHT22;4206;48.634;9.516;2022-12-18T17:48:43;-6.20;99.90
8338;DHT22;4206;48.634;9.516;2022-12-18T17:51:10;-6.20;99.90
8338;DHT22;4206;48.634;9.516;2022-12-18T17:53:36;-6.20;99.90
8338;DHT22;4206;48.634;9.516;2022-12-18T17:56:04;-6.20;99.90
8338;DHT22;4206;48.634;9.516;2022-12-18T17:58:35;-6.10;99.90
8338;DHT22;4206;48.634;9.516;2022-12-18T18:01:01;-6.10;99.90
8338;DHT22;4206;48.634;9.516;2022-12-18T18:03:30;-6.00;99.90
8338;DHT22;4206;48.634;9.516;2022-12-18T18:05:58;-6.00;99.90
8338;DHT22;4206;48.634;9.516;2022-12-18T18:08:23;-5.90;99.90
8338;DHT22;4206;48.634;9.516;2022-12-18T18:10:50;-5.80;99.90
8338;DHT22;4206;48.634;9.516;2022-12-18T18:13:20;-5.80;99.90
8338;DHT22;4206;48.634;9.516;2022-12-18T18:16:01;-5.80;99.90
8338;DHT22;4206;48.634;9.516;2022-12-18T18:18:28;-5.80;99.90
8338;DHT22;4206;48.634;9.516;2022-12-18T18:20:54;-5.80;99.90
8338;DHT22;4206;48.634;9.516;2022-12-18T18:23:20;-5.80;99.90
8338;DHT22;4206;48.634;9.516;2022-12-18T18:25:50;-5.80;99.90